createdAt,value
2022-09-11T00:02:18.795Z,101069.22
2022-09-11T00:07:20.151Z,101073.50
2022-09-11T00:12:22.139Z,101075.38
2022-09-11T00:17:23.793Z,101082.03
2022-09-11T00:22:25.119Z,101084.03
2022-09-11T00:27:26.512Z,101082.44
2022-09-11T00:32:28.168Z,101073.69
2022-09-11T00:37:29.481Z,101081.19
2022-09-11T00:42:30.919Z,101087.41
2022-09-11T00:47:32.350Z,101081.72
2022-09-11T00:52:37.620Z,101073.59
2022-09-11T00:57:42.268Z,101085.66
2022-09-11T01:02:46.530Z,101082.97
2022-09-11T01:07:49.187Z,101080.72
2022-09-11T01:13:01.100Z,101088.19
2022-09-11T01:18:07.854Z,101088.19
2022-09-11T01:23:24.598Z,101083.28
2022-09-11T01:28:33.685Z,101097.50
2022-09-11T01:33:42.053Z,101089.34
2022-09-11T01:38:46.807Z,101096.03
2022-09-11T01:43:56.230Z,101095.81
2022-09-11T01:49:02.556Z,101112.63
2022-09-11T01:54:06.929Z,101108.78
2022-09-11T01:59:12.200Z,101108.72
2022-09-11T02:04:17.252Z,101116.81
2022-09-11T02:09:21.687Z,101109.50
2022-09-11T02:14:32.712Z,101116.81
2022-09-11T02:19:34.120Z,101131.75
2022-09-11T02:24:35.557Z,101122.03
2022-09-11T02:29:37.110Z,101130.53
2022-09-11T02:34:40.120Z,101141.25
2022-09-11T02:39:53.714Z,101132.69
2022-09-11T02:45:03.949Z,101144.25
2022-09-11T02:50:08.400Z,101143.03
2022-09-11T02:55:09.698Z,101143.88
2022-09-11T03:00:11.915Z,101137.34
2022-09-11T03:05:13.524Z,101152.16
2022-09-11T03:10:15.060Z,101143.97
2022-09-11T03:15:17.455Z,101146.66
2022-09-11T03:20:20.145Z,101157.56
2022-09-11T03:25:23.588Z,101161.38
2022-09-11T03:30:24.917Z,101167.38
2022-09-11T03:35:27.129Z,101159.56
2022-09-11T03:40:28.471Z,101159.03
2022-09-11T03:45:30.022Z,101166.81
2022-09-11T03:50:31.341Z,101162.72
2022-09-11T03:55:33.009Z,101167.25
2022-09-11T04:00:34.372Z,101164.78
2022-09-11T04:05:36.391Z,101170.63
2022-09-11T04:10:38.305Z,101169.59
2022-09-11T04:15:39.619Z,101174.88
2022-09-11T04:20:40.921Z,101173.50
2022-09-11T04:25:42.233Z,101182.19
2022-09-11T04:30:43.541Z,101182.78
2022-09-11T04:35:44.865Z,101193.16
2022-09-11T04:40:46.259Z,101194.63
2022-09-11T04:45:47.619Z,101202.88
2022-09-11T04:50:48.957Z,101204.53
2022-09-11T04:55:50.532Z,101201.06
2022-09-11T05:00:51.857Z,101197.66
2022-09-11T05:05:53.189Z,101203.31
2022-09-11T05:10:55.116Z,101207.34
2022-09-11T05:16:00.732Z,101215.69
2022-09-11T05:21:03.343Z,101224.34
2022-09-11T05:26:05.321Z,101218.28
2022-09-11T05:31:13.719Z,101229.75
2022-09-11T05:36:16.261Z,101231.97
2022-09-11T05:41:17.593Z,101243.44
2022-09-11T05:46:19.629Z,101247.34
2022-09-11T05:51:21.765Z,101252.25
2022-09-11T05:56:24.320Z,101265.72
2022-09-11T06:01:26.668Z,101264.69
2022-09-11T06:06:29.309Z,101280.94
2022-09-11T06:11:30.995Z,101280.50
2022-09-11T06:16:32.530Z,101296.22
2022-09-11T06:21:34.104Z,101293.25
2022-09-11T06:26:35.489Z,101294.31
2022-09-11T06:31:36.807Z,101308.47
2022-09-11T06:36:38.822Z,101314.66
2022-09-11T06:41:40.133Z,101308.31
2022-09-11T06:46:42.208Z,101313.31
2022-09-11T06:51:43.671Z,101318.88
2022-09-11T06:56:45.265Z,101321.34
2022-09-11T07:01:46.696Z,101327.25
2022-09-11T07:06:48.095Z,101329.44
2022-09-11T07:11:49.481Z,101322.41
2022-09-11T07:16:52.880Z,101331.53
2022-09-11T07:21:54.292Z,101329.03
2022-09-11T07:26:55.665Z,101327.09
2022-09-11T07:31:58.565Z,101319.91
2022-09-11T07:36:59.875Z,101327.44
2022-09-11T07:42:01.269Z,101332.91
2022-09-11T07:47:02.766Z,101325.72
2022-09-11T07:52:04.309Z,101331.06
2022-09-11T07:57:05.674Z,101332.09
2022-09-11T08:02:11.681Z,101331.31
2022-09-11T08:07:13.055Z,101337.06
2022-09-11T08:12:14.489Z,101333.38
2022-09-11T08:17:16.170Z,101330.38
2022-09-11T08:22:17.859Z,101330.13
2022-09-11T08:27:19.179Z,101337.59
2022-09-11T08:32:22.253Z,101344.06
2022-09-11T08:37:23.578Z,101347.13
2022-09-11T08:42:27.246Z,101350.09
2022-09-11T08:47:31.311Z,101352.00
2022-09-11T08:52:33.203Z,101350.41
2022-09-11T08:57:47.303Z,101353.09
2022-09-11T09:03:08.617Z,101365.09
2022-09-11T09:08:09.921Z,101366.13
2022-09-11T09:13:24.245Z,101362.97
2022-09-11T09:18:33.476Z,101364.28
2022-09-11T09:23:49.511Z,101373.97
2022-09-11T09:28:54.912Z,101382.03
2022-09-11T09:34:09.546Z,101385.88
2022-09-11T09:39:15.702Z,101370.88
2022-09-11T09:44:27.859Z,101385.22
2022-09-11T09:49:33.133Z,101372.63
2022-09-11T09:54:36.391Z,101384.91
2022-09-11T09:59:47.456Z,101382.03
2022-09-11T10:05:02.309Z,101379.31
2022-09-11T10:10:04.708Z,101381.03
2022-09-11T10:15:06.540Z,101375.59
2022-09-11T10:20:13.665Z,101373.97
2022-09-11T10:25:16.020Z,101369.94
2022-09-11T10:30:43.735Z,101365.41
2022-09-11T10:35:55.065Z,101363.34
2022-09-11T10:40:59.262Z,101358.03
2022-09-11T10:46:28.706Z,101359.34
2022-09-11T10:51:31.495Z,101352.09
2022-09-11T10:56:35.866Z,101346.97
2022-09-11T11:01:37.393Z,101352.31
2022-09-11T11:06:53.427Z,101341.09
2022-09-11T11:12:02.068Z,101339.16
2022-09-11T11:17:18.485Z,101335.38
2022-09-11T11:22:38.722Z,101326.78
2022-09-11T11:28:00.704Z,101336.28
2022-09-11T11:33:10.416Z,101325.06
2022-09-11T11:38:16.353Z,101332.75
2022-09-11T11:43:21.209Z,101338.97
2022-09-11T11:48:34.425Z,101332.66
2022-09-11T11:53:39.003Z,101324.66
2022-09-11T11:58:47.627Z,101334.63
2022-09-11T12:03:55.433Z,101336.59
2022-09-11T12:08:57.336Z,101331.50
2022-09-11T12:13:59.264Z,101332.41
2022-09-11T12:19:04.241Z,101328.06
2022-09-11T12:24:05.540Z,101316.84
2022-09-11T12:29:13.966Z,101319.84
2022-09-11T12:34:17.386Z,101305.31
2022-09-11T12:39:37.404Z,101305.78
2022-09-11T12:44:47.487Z,101310.63
2022-09-11T12:49:58.894Z,101300.16
2022-09-11T12:55:02.897Z,101290.19
2022-09-11T13:00:11.103Z,101275.44
2022-09-11T13:05:34.651Z,101269.78
2022-09-11T13:10:37.599Z,101257.28
2022-09-11T13:15:41.160Z,101253.78
2022-09-11T13:20:42.575Z,101266.06
2022-09-11T13:25:45.045Z,101254.25
2022-09-11T13:31:03.313Z,101262.88
2022-09-11T13:36:06.857Z,101258.34
2022-09-11T13:41:16.740Z,101250.19
2022-09-11T13:46:19.466Z,101246.66
2022-09-11T13:51:22.592Z,101240.78
2022-09-11T13:56:47.197Z,101233.63
2022-09-11T14:01:53.892Z,101215.50
2022-09-11T14:06:55.989Z,101225.81
2022-09-11T14:12:02.245Z,101217.22
2022-09-11T14:17:03.606Z,101225.63
2022-09-11T14:22:22.578Z,101226.19
2022-09-11T14:27:32.913Z,101218.50
2022-09-11T14:32:36.812Z,101222.97
2022-09-11T14:37:43.950Z,101219.91
2022-09-11T14:42:45.614Z,101210.84
2022-09-11T14:47:46.925Z,101204.44
2022-09-11T14:52:48.256Z,101191.16
2022-09-11T14:57:50.053Z,101195.66
2022-09-11T15:02:52.055Z,101193.31
2022-09-11T15:07:53.360Z,101190.59
2022-09-11T15:12:55.508Z,101181.25
2022-09-11T15:17:57.130Z,101169.44
2022-09-11T15:22:58.539Z,101177.06
2022-09-11T15:27:59.859Z,101175.19
2022-09-11T15:33:01.215Z,101167.13
2022-09-11T15:38:05.512Z,101170.34
2022-09-11T15:43:06.934Z,101167.88
2022-09-11T15:48:08.288Z,101173.09
2022-09-11T15:53:10.112Z,101166.13
2022-09-11T15:58:11.727Z,101166.41
2022-09-11T16:03:13.046Z,101165.88
2022-09-11T16:08:15.387Z,101171.53
2022-09-11T16:13:17.732Z,101163.84
2022-09-11T16:18:19.506Z,101162.72
2022-09-11T16:23:21.872Z,101161.34
2022-09-11T16:28:23.331Z,101155.69
2022-09-11T16:33:24.663Z,101157.06
2022-09-11T16:38:26.113Z,101152.66
2022-09-11T16:43:27.528Z,101155.13
2022-09-11T16:48:29.273Z,101154.16
2022-09-11T16:53:31.850Z,101157.72
2022-09-11T16:58:36.500Z,101163.41
2022-09-11T17:03:41.375Z,101156.94
2022-09-11T17:08:44.625Z,101164.97
2022-09-11T17:13:46.634Z,101164.66
2022-09-11T17:18:49.050Z,101160.41
2022-09-11T17:23:51.535Z,101167.28
2022-09-11T17:28:55.009Z,101163.00
2022-09-11T17:33:56.597Z,101156.75
2022-09-11T17:38:59.412Z,101170.53
2022-09-11T17:44:00.799Z,101167.47
2022-09-11T17:49:02.282Z,101169.78
2022-09-11T17:54:03.669Z,101156.81
2022-09-11T17:59:04.990Z,101158.75
2022-09-11T18:04:06.966Z,101158.78
2022-09-11T18:09:13.843Z,101154.31
2022-09-11T18:14:16.378Z,101161.72
2022-09-11T18:19:20.296Z,101172.72
2022-09-11T18:24:21.971Z,101183.44
2022-09-11T18:29:23.275Z,101178.72
2022-09-11T18:34:28.076Z,101194.22
2022-09-11T18:39:29.391Z,101200.06
2022-09-11T18:44:30.714Z,101202.25
2022-09-11T18:49:32.083Z,101204.88
2022-09-11T18:54:33.656Z,101202.97
2022-09-11T18:59:34.975Z,101212.09
2022-09-11T19:04:36.275Z,101216.88
2022-09-11T19:09:37.862Z,101212.13
2022-09-11T19:14:39.168Z,101213.81
2022-09-11T19:19:40.499Z,101217.50
2022-09-11T19:24:42.529Z,101217.16
2022-09-11T19:29:43.972Z,101214.22
2022-09-11T19:34:47.514Z,101225.41
2022-09-11T19:39:50.775Z,101231.50
2022-09-11T19:44:55.723Z,101229.72
2022-09-11T19:50:00.210Z,101230.16
2022-09-11T19:55:01.782Z,101227.50
2022-09-11T20:00:03.951Z,101231.63
2022-09-11T20:05:05.428Z,101235.66
2022-09-11T20:10:08.147Z,101232.47
2022-09-11T20:15:09.695Z,101232.88
2022-09-11T20:20:11.880Z,101231.66
2022-09-11T20:25:13.196Z,101236.94
2022-09-11T20:30:14.549Z,101229.66
2022-09-11T20:35:15.959Z,101235.13
2022-09-11T20:40:17.335Z,101216.31
2022-09-11T20:45:18.713Z,101218.75
2022-09-11T20:50:20.020Z,101227.63
2022-09-11T20:55:21.345Z,101225.41
2022-09-11T21:00:22.757Z,101236.47
2022-09-11T21:05:24.062Z,101219.91
2022-09-11T21:10:25.461Z,101223.53
2022-09-11T21:15:26.833Z,101218.28
2022-09-11T21:20:28.142Z,101217.88
2022-09-11T21:25:29.554Z,101213.41
2022-09-11T21:30:30.953Z,101210.53
2022-09-11T21:35:32.261Z,101206.09
2022-09-11T21:40:33.640Z,101208.47
2022-09-11T21:45:34.960Z,101201.41
2022-09-11T21:50:36.908Z,101194.50
2022-09-11T21:55:42.486Z,101202.97
2022-09-11T22:00:43.917Z,101200.72
2022-09-11T22:05:47.649Z,101197.09
2022-09-11T22:10:50.409Z,101201.06
2022-09-11T22:15:52.967Z,101193.63
2022-09-11T22:20:58.235Z,101201.81
2022-09-11T22:26:01.520Z,101203.22
2022-09-11T22:31:07.609Z,101199.31
2022-09-11T22:36:13.444Z,101209.19
2022-09-11T22:41:15.223Z,101193.00
2022-09-11T22:46:17.392Z,101183.88
2022-09-11T22:51:18.749Z,101184.03
2022-09-11T22:56:20.078Z,101188.63
2022-09-11T23:01:22.727Z,101185.78
2022-09-11T23:06:43.275Z,101192.19
2022-09-11T23:11:45.457Z,101200.69
2022-09-11T23:16:46.785Z,101190.78
2022-09-11T23:21:48.123Z,101200.78
2022-09-11T23:26:49.704Z,101182.81
2022-09-11T23:31:51.142Z,101190.81
2022-09-11T23:36:52.742Z,101200.47
2022-09-11T23:41:54.212Z,101203.22
2022-09-11T23:46:55.528Z,101197.88
2022-09-11T23:51:56.896Z,101195.88
2022-09-11T23:56:58.389Z,101195.88
